Time;durP1;ratioP1;P1;durP2;ratioP2;P2;SDS_P1;SDS_P2;PMS_P1;PMS_P2;Temp;Humidity;BMP_temperature;BMP_pressure;BME280_temperature;BME280_humidity;BME280_pressure;Samples;Min_cycle;Max_cycle;Signal;HPM_P1;HPM_P2
2023/12/21 00:00:53;;;;;;;1.83;0.90;;;;;;;;;;5034453;28;20022;-69
2023/12/21 00:03:18;;;;;;;1.33;1.00;;;;;;;;;;5033888;28;20255;-68
2023/12/21 00:05:43;;;;;;;2.10;1.00;;;;;;;;;;5034514;28;20285;-69
2023/12/21 00:08:09;;;;;;;0.83;0.70;;;;;;;;;;5034432;28;20329;-69
2023/12/21 00:10:34;;;;;;;1.50;0.90;;;;;;;;;;5034056;28;20706;-69
2023/12/21 00:12:59;;;;;;;0.82;0.80;;;;;;;;;;5033556;28;20029;-69
2023/12/21 00:15:24;;;;;;;0.83;0.70;;;;;;;;;;5034020;28;20125;-69
2023/12/21 00:17:50;;;;;;;2.13;0.93;;;;;;;;;;5033197;28;20345;-69
2023/12/21 00:20:16;;;;;;;4.47;1.10;;;;;;;;;;5033814;28;20377;-69
2023/12/21 00:22:41;;;;;;;0.98;0.70;;;;;;;;;;5034382;28;20306;-69
2023/12/21 00:25:07;;;;;;;0.90;0.70;;;;;;;;;;5033560;28;20056;-65
2023/12/21 00:27:32;;;;;;;0.60;0.57;;;;;;;;;;5034272;28;20309;-65
2023/12/21 00:29:57;;;;;;;0.75;0.60;;;;;;;;;;5033771;28;20056;-65
2023/12/21 00:32:22;;;;;;;0.40;0.40;;;;;;;;;;5032996;28;20076;-65
2023/12/21 00:34:49;;;;;;;0.47;0.47;;;;;;;;;;5034248;28;20112;-65
2023/12/21 00:37:14;;;;;;;0.43;0.43;;;;;;;;;;5032680;28;20277;-65
2023/12/21 00:39:40;;;;;;;0.52;0.52;;;;;;;;;;5033642;28;20021;-65
2023/12/21 00:42:05;;;;;;;0.30;0.30;;;;;;;;;;5034381;28;20026;-65
2023/12/21 00:44:30;;;;;;;0.60;0.43;;;;;;;;;;5033165;28;20270;-66
2023/12/21 00:46:55;;;;;;;0.50;0.50;;;;;;;;;;5033549;28;20258;-65
2023/12/21 00:49:21;;;;;;;0.30;0.30;;;;;;;;;;5033876;28;20412;-65
2023/12/21 00:51:46;;;;;;;0.50;0.50;;;;;;;;;;5033090;28;20156;-65
2023/12/21 00:54:11;;;;;;;0.52;0.43;;;;;;;;;;5033909;28;20349;-65
2023/12/21 00:56:36;;;;;;;0.30;0.30;;;;;;;;;;5032965;28;20030;-65
2023/12/21 00:59:04;;;;;;;0.40;0.40;;;;;;;;;;5033554;28;20278;-65
2023/12/21 01:01:29;;;;;;;0.30;0.30;;;;;;;;;;5033813;28;20642;-65
2023/12/21 01:03:54;;;;;;;0.35;0.30;;;;;;;;;;5032206;28;20028;-66
2023/12/21 01:06:19;;;;;;;0.40;0.40;;;;;;;;;;5033745;28;20025;-65
2023/12/21 01:08:45;;;;;;;0.52;0.40;;;;;;;;;;5033643;28;20741;-65
2023/12/21 01:11:10;;;;;;;0.30;0.30;;;;;;;;;;5032789;28;20026;-66
2023/12/21 01:13:36;;;;;;;0.32;0.32;;;;;;;;;;5033664;28;20262;-65
2023/12/21 01:16:01;;;;;;;0.30;0.30;;;;;;;;;;5032473;28;20378;-65
2023/12/21 01:18:26;;;;;;;0.40;0.40;;;;;;;;;;5033205;28;20026;-66
2023/12/21 01:20:51;;;;;;;0.57;0.20;;;;;;;;;;5033140;28;20275;-66
2023/12/21 01:23:17;;;;;;;0.43;0.30;;;;;;;;;;5032483;28;20022;-65
2023/12/21 01:25:42;;;;;;;0.30;0.30;;;;;;;;;;5032953;28;20289;-66
2023/12/21 01:28:07;;;;;;;1.20;0.35;;;;;;;;;;5031287;28;20470;-65
2023/12/21 01:30:32;;;;;;;0.40;0.40;;;;;;;;;;5032222;28;20032;-65
2023/12/21 01:32:58;;;;;;;0.40;0.20;;;;;;;;;;5031761;28;20662;-65
2023/12/21 01:35:23;;;;;;;0.40;0.40;;;;;;;;;;5032745;28;20270;-66
2023/12/21 01:37:48;;;;;;;0.30;0.30;;;;;;;;;;5032840;28;20083;-65
2023/12/21 01:40:14;;;;;;;0.30;0.30;;;;;;;;;;5032544;28;20274;-65
2023/12/21 01:42:40;;;;;;;0.82;0.47;;;;;;;;;;5032394;28;20277;-66
2023/12/21 01:45:05;;;;;;;0.55;0.25;;;;;;;;;;5032986;28;20075;-65
2023/12/21 01:47:31;;;;;;;0.43;0.28;;;;;;;;;;5032187;28;20021;-65
2023/12/21 01:49:56;;;;;;;0.30;0.30;;;;;;;;;;5032348;28;20389;-65
2023/12/21 01:52:21;;;;;;;3.30;0.43;;;;;;;;;;5031818;28;20036;-65
2023/12/21 01:54:46;;;;;;;0.52;0.50;;;;;;;;;;5032098;28;20025;-66
2023/12/21 01:57:12;;;;;;;0.68;0.30;;;;;;;;;;5032483;28;20060;-65
2023/12/21 01:59:38;;;;;;;0.20;0.20;;;;;;;;;;5032570;28;20359;-65
2023/12/21 02:02:03;;;;;;;0.22;0.22;;;;;;;;;;5031969;28;20489;-65
2023/12/21 02:04:28;;;;;;;0.20;0.20;;;;;;;;;;5031820;28;20060;-65
2023/12/21 02:06:54;;;;;;;0.40;0.40;;;;;;;;;;5032066;28;20025;-65
2023/12/21 02:09:19;;;;;;;1.60;0.30;;;;;;;;;;5029814;28;20632;-65
2023/12/21 02:11:45;;;;;;;0.33;0.30;;;;;;;;;;5029720;28;20266;-66
2023/12/21 02:14:11;;;;;;;1.30;0.35;;;;;;;;;;5029123;28;20259;-65
2023/12/21 02:16:46;;;;;;;0.60;0.30;;;;;;;;;;5031644;28;20044;-65
2023/12/21 02:19:12;;;;;;;0.20;0.20;;;;;;;;;;5031398;28;20254;-65
2023/12/21 02:21:39;;;;;;;0.17;0.17;;;;;;;;;;5031442;28;20033;-65
2023/12/21 02:24:10;;;;;;;0.52;0.30;;;;;;;;;;5030522;28;20021;-65
2023/12/21 02:26:35;;;;;;;2.50;0.20;;;;;;;;;;5032085;28;20053;-65
2023/12/21 02:29:00;;;;;;;0.83;0.37;;;;;;;;;;5031202;28;20060;-65
2023/12/21 02:31:25;;;;;;;0.30;0.30;;;;;;;;;;5031839;28;20302;-65
2023/12/21 02:33:51;;;;;;;0.97;0.47;;;;;;;;;;5031889;28;20564;-65
2023/12/21 02:36:16;;;;;;;0.30;0.30;;;;;;;;;;5032265;28;20347;-65
2023/12/21 02:38:41;;;;;;;1.15;0.28;;;;;;;;;;5030805;28;20358;-65
2023/12/21 02:41:06;;;;;;;0.20;0.20;;;;;;;;;;5031633;28;20034;-65
2023/12/21 02:43:31;;;;;;;0.27;0.27;;;;;;;;;;5031598;28;20734;-65
2023/12/21 02:45:57;;;;;;;0.13;0.13;;;;;;;;;;5031018;28;20030;-65
2023/12/21 02:48:22;;;;;;;0.10;0.10;;;;;;;;;;5032073;28;20267;-65
2023/12/21 02:50:47;;;;;;;0.40;0.30;;;;;;;;;;5031160;28;20282;-66
2023/12/21 02:53:12;;;;;;;0.10;0.10;;;;;;;;;;5031916;28;20036;-65
2023/12/21 02:55:37;;;;;;;0.20;0.20;;;;;;;;;;5031435;28;20037;-65
2023/12/21 02:58:03;;;;;;;0.20;0.20;;;;;;;;;;5030957;28;20279;-66
2023/12/21 03:00:28;;;;;;;0.22;0.22;;;;;;;;;;5034919;28;20041;-65
2023/12/21 03:02:53;;;;;;;0.17;0.17;;;;;;;;;;5035673;28;20026;-65
2023/12/21 03:05:18;;;;;;;0.30;0.30;;;;;;;;;;5034543;28;20033;-65
2023/12/21 03:07:43;;;;;;;0.20;0.20;;;;;;;;;;5035471;28;20271;-65
2023/12/21 03:10:09;;;;;;;0.30;0.30;;;;;;;;;;5035461;28;20274;-65
2023/12/21 03:12:34;;;;;;;0.40;0.40;;;;;;;;;;5035038;28;20267;-65
2023/12/21 03:14:59;;;;;;;0.30;0.20;;;;;;;;;;5035368;28;20060;-65
2023/12/21 03:17:25;;;;;;;0.20;0.20;;;;;;;;;;5035035;28;20262;-65
2023/12/21 03:19:50;;;;;;;1.50;0.37;;;;;;;;;;5034563;28;20037;-65
2023/12/21 03:22:15;;;;;;;0.20;0.20;;;;;;;;;;5035637;28;20667;-65
2023/12/21 03:24:41;;;;;;;1.50;0.30;;;;;;;;;;5034273;28;20385;-65
2023/12/21 03:27:09;;;;;;;0.15;0.15;;;;;;;;;;5035087;28;20022;-65
2023/12/21 03:29:35;;;;;;;0.30;0.30;;;;;;;;;;5034780;28;20457;-65
2023/12/21 03:32:00;;;;;;;0.10;0.10;;;;;;;;;;5034297;28;20063;-65
2023/12/21 03:34:25;;;;;;;2.00;0.40;;;;;;;;;;5034739;28;20025;-65
2023/12/21 03:36:50;;;;;;;0.30;0.30;;;;;;;;;;5035217;28;20259;-65
2023/12/21 03:39:15;;;;;;;0.20;0.20;;;;;;;;;;5034290;28;20029;-65
2023/12/21 03:41:41;;;;;;;0.30;0.22;;;;;;;;;;5034460;28;20029;-65
2023/12/21 03:44:06;;;;;;;0.73;0.20;;;;;;;;;;5033344;28;20049;-65
2023/12/21 03:46:31;;;;;;;0.10;0.10;;;;;;;;;;5034818;28;20353;-65
2023/12/21 03:48:56;;;;;;;0.30;0.30;;;;;;;;;;5034845;28;20258;-65
2023/12/21 03:51:21;;;;;;;0.57;0.40;;;;;;;;;;5033974;28;20324;-65
2023/12/21 03:53:47;;;;;;;2.22;0.35;;;;;;;;;;5034669;28;20616;-65
2023/12/21 03:56:12;;;;;;;0.73;0.40;;;;;;;;;;5034597;28;20026;-68
2023/12/21 03:58:40;;;;;;;0.30;0.23;;;;;;;;;;5033558;28;20271;-68
2023/12/21 04:01:05;;;;;;;0.30;0.22;;;;;;;;;;5034342;28;20270;-69
2023/12/21 04:03:30;;;;;;;0.20;0.20;;;;;;;;;;5034336;28;20067;-69
2023/12/21 04:05:56;;;;;;;0.23;0.23;;;;;;;;;;5034040;28;20274;-68
2023/12/21 04:08:21;;;;;;;0.22;0.22;;;;;;;;;;5034480;28;20646;-69
2023/12/21 04:10:47;;;;;;;0.57;0.32;;;;;;;;;;5033922;28;20473;-69
2023/12/21 04:13:12;;;;;;;0.20;0.20;;;;;;;;;;5032615;28;20040;-68
2023/12/21 04:15:37;;;;;;;0.30;0.30;;;;;;;;;;5034236;28;20049;-68
2023/12/21 04:18:03;;;;;;;0.65;0.30;;;;;;;;;;5033872;28;20262;-68
2023/12/21 04:20:28;;;;;;;0.15;0.15;;;;;;;;;;5033728;28;20079;-68
2023/12/21 04:22:53;;;;;;;0.30;0.30;;;;;;;;;;5034047;28;20022;-69
2023/12/21 04:25:18;;;;;;;0.40;0.20;;;;;;;;;;5033212;28;20389;-67
2023/12/21 04:27:43;;;;;;;0.30;0.25;;;;;;;;;;5034107;28;20017;-68
2023/12/21 04:30:09;;;;;;;0.10;0.10;;;;;;;;;;5033707;28;20021;-68
2023/12/21 04:32:34;;;;;;;0.20;0.20;;;;;;;;;;5033546;28;20282;-68
2023/12/21 04:34:59;;;;;;;0.30;0.13;;;;;;;;;;5033734;28;20423;-69
2023/12/21 04:37:25;;;;;;;0.13;0.13;;;;;;;;;;5033990;28;20809;-68
2023/12/21 04:39:50;;;;;;;0.80;0.30;;;;;;;;;;5033064;28;20285;-68
2023/12/21 04:42:15;;;;;;;1.95;0.40;;;;;;;;;;5033978;28;20018;-68
2023/12/21 04:44:40;;;;;;;0.20;0.20;;;;;;;;;;5033144;28;20025;-68
2023/12/21 04:47:08;;;;;;;0.30;0.30;;;;;;;;;;5033252;28;20263;-68
2023/12/21 04:49:34;;;;;;;0.30;0.30;;;;;;;;;;5033815;28;20792;-68
2023/12/21 04:51:59;;;;;;;0.20;0.20;;;;;;;;;;5032830;28;20049;-68
2023/12/21 04:54:24;;;;;;;0.30;0.30;;;;;;;;;;5033477;28;20423;-68
2023/12/21 04:56:49;;;;;;;0.20;0.20;;;;;;;;;;5033253;28;20820;-68
2023/12/21 04:59:15;;;;;;;0.70;0.50;;;;;;;;;;5032754;28;20317;-68
2023/12/21 05:01:40;;;;;;;0.20;0.20;;;;;;;;;;5033118;28;20290;-68
2023/12/21 05:04:06;;;;;;;0.20;0.20;;;;;;;;;;5032531;28;20255;-65
2023/12/21 05:06:31;;;;;;;0.47;0.20;;;;;;;;;;5033328;28;20269;-68
2023/12/21 05:08:56;;;;;;;0.20;0.20;;;;;;;;;;5032404;28;20396;-68
2023/12/21 05:11:22;;;;;;;0.20;0.20;;;;;;;;;;5033341;28;20745;-69
2023/12/21 05:13:47;;;;;;;0.20;0.20;;;;;;;;;;5031917;28;20266;-68
2023/12/21 05:16:13;;;;;;;0.30;0.30;;;;;;;;;;5032946;28;20049;-68
2023/12/21 05:18:38;;;;;;;0.05;0.05;;;;;;;;;;5033437;28;20262;-68
2023/12/21 05:21:06;;;;;;;0.10;0.10;;;;;;;;;;5031300;28;20469;-68
2023/12/21 05:23:32;;;;;;;0.17;0.17;;;;;;;;;;5033092;28;20380;-68
2023/12/21 05:25:57;;;;;;;0.23;0.23;;;;;;;;;;5033136;28;20104;-68
2023/12/21 05:28:22;;;;;;;0.10;0.10;;;;;;;;;;5032041;28;20354;-68
2023/12/21 05:30:47;;;;;;;0.10;0.10;;;;;;;;;;5033192;28;20026;-69
2023/12/21 05:33:13;;;;;;;0.10;0.10;;;;;;;;;;5031933;28;20033;-67
2023/12/21 05:35:38;;;;;;;1.10;0.30;;;;;;;;;;5033096;28;20267;-68
2023/12/21 05:38:03;;;;;;;0.50;0.27;;;;;;;;;;5032425;28;20018;-68
2023/12/21 05:40:29;;;;;;;0.20;0.20;;;;;;;;;;5031762;28;20287;-68
2023/12/21 05:42:54;;;;;;;0.20;0.20;;;;;;;;;;5030730;28;20278;-67
2023/12/21 05:45:19;;;;;;;0.20;0.20;;;;;;;;;;5026668;28;20642;-68
2023/12/21 05:47:44;;;;;;;0.20;0.20;;;;;;;;;;5033672;28;20766;-69
2023/12/21 05:50:10;;;;;;;0.30;0.30;;;;;;;;;;5034099;28;20079;-68
2023/12/21 05:52:36;;;;;;;0.13;0.13;;;;;;;;;;5034048;28;20247;-68
2023/12/21 05:55:02;;;;;;;0.25;0.25;;;;;;;;;;5033991;28;20032;-68
2023/12/21 05:57:27;;;;;;;0.30;0.20;;;;;;;;;;5033751;28;20017;-68
2023/12/21 05:59:52;;;;;;;0.23;0.23;;;;;;;;;;5033585;28;20029;-68
2023/12/21 06:02:17;;;;;;;0.47;0.30;;;;;;;;;;5033673;28;20247;-68
2023/12/21 06:04:43;;;;;;;0.63;0.43;;;;;;;;;;5033637;28;20587;-68
2023/12/21 06:07:08;;;;;;;0.30;0.30;;;;;;;;;;5033625;28;20741;-68
2023/12/21 06:09:33;;;;;;;0.30;0.30;;;;;;;;;;5033795;28;20017;-68
2023/12/21 06:11:58;;;;;;;0.50;0.30;;;;;;;;;;5033476;28;20257;-68
2023/12/21 06:14:24;;;;;;;0.73;0.30;;;;;;;;;;5033496;28;20068;-66
2023/12/21 06:16:49;;;;;;;0.20;0.20;;;;;;;;;;5033512;28;20166;-65
2023/12/21 06:19:15;;;;;;;0.60;0.50;;;;;;;;;;5033453;28;20738;-65
2023/12/21 06:21:40;;;;;;;0.40;0.38;;;;;;;;;;5033576;28;20463;-65
2023/12/21 06:24:06;;;;;;;0.38;0.38;;;;;;;;;;5033375;28;20096;-66
2023/12/21 06:26:31;;;;;;;0.22;0.22;;;;;;;;;;5033353;28;20022;-65
2023/12/21 06:28:57;;;;;;;0.20;0.20;;;;;;;;;;5033261;28;20021;-65
2023/12/21 06:31:23;;;;;;;0.90;0.33;;;;;;;;;;5033300;28;20076;-65
2023/12/21 06:33:48;;;;;;;0.75;0.40;;;;;;;;;;5033095;28;20246;-65
2023/12/21 06:36:14;;;;;;;0.23;0.23;;;;;;;;;;5033301;28;20083;-66
2023/12/21 06:38:40;;;;;;;0.20;0.20;;;;;;;;;;5033318;28;20702;-65
2023/12/21 06:41:05;;;;;;;2.15;0.40;;;;;;;;;;5033104;28;20022;-65
2023/12/21 06:43:30;;;;;;;0.30;0.30;;;;;;;;;;5033224;28;20025;-66
2023/12/21 06:45:55;;;;;;;0.47;0.30;;;;;;;;;;5033167;28;20017;-65
2023/12/21 06:48:21;;;;;;;0.40;0.40;;;;;;;;;;5033384;28;20606;-66
2023/12/21 06:50:46;;;;;;;0.27;0.27;;;;;;;;;;5033394;28;20492;-65
2023/12/21 06:53:15;;;;;;;0.50;0.50;;;;;;;;;;5033304;28;20254;-65
2023/12/21 06:55:41;;;;;;;0.40;0.40;;;;;;;;;;5033773;28;20381;-66
2023/12/21 06:58:06;;;;;;;0.30;0.30;;;;;;;;;;5033035;28;20018;-66
2023/12/21 07:00:31;;;;;;;0.50;0.50;;;;;;;;;;5032917;28;20072;-66
2023/12/21 07:02:56;;;;;;;0.57;0.40;;;;;;;;;;5032998;28;20048;-65
2023/12/21 07:05:21;;;;;;;0.20;0.20;;;;;;;;;;5032990;28;20645;-66
2023/12/21 07:07:47;;;;;;;0.33;0.30;;;;;;;;;;5033162;28;20275;-66
2023/12/21 07:10:12;;;;;;;0.52;0.35;;;;;;;;;;5033188;28;20322;-65
2023/12/21 07:12:37;;;;;;;0.88;0.50;;;;;;;;;;5032900;28;20469;-65
2023/12/21 07:15:04;;;;;;;0.70;0.50;;;;;;;;;;5032772;28;20045;-65
2023/12/21 07:17:29;;;;;;;0.38;0.30;;;;;;;;;;5032814;28;20297;-65
2023/12/21 07:19:54;;;;;;;0.53;0.30;;;;;;;;;;5032810;28;20029;-65
2023/12/21 07:22:19;;;;;;;0.30;0.30;;;;;;;;;;5032785;28;20296;-65
2023/12/21 07:24:45;;;;;;;0.17;0.17;;;;;;;;;;5032903;28;20014;-68
2023/12/21 07:27:10;;;;;;;0.60;0.60;;;;;;;;;;5031549;28;20361;-68
2023/12/21 07:29:36;;;;;;;0.60;0.60;;;;;;;;;;5032706;28;20358;-68
2023/12/21 07:32:01;;;;;;;0.40;0.40;;;;;;;;;;5033025;28;20028;-68
2023/12/21 07:34:28;;;;;;;0.47;0.47;;;;;;;;;;5032700;28;20025;-68
2023/12/21 07:36:53;;;;;;;0.50;0.47;;;;;;;;;;5032688;28;20610;-68
2023/12/21 07:39:19;;;;;;;0.37;0.37;;;;;;;;;;5032658;28;20017;-68
2023/12/21 07:41:44;;;;;;;0.45;0.40;;;;;;;;;;5032784;28;20275;-68
2023/12/21 07:44:09;;;;;;;0.32;0.32;;;;;;;;;;5032891;28;20040;-68
2023/12/21 07:46:34;;;;;;;0.30;0.30;;;;;;;;;;5034980;28;20377;-68
2023/12/21 07:49:00;;;;;;;0.23;0.23;;;;;;;;;;5036111;28;20022;-68
2023/12/21 07:51:25;;;;;;;0.43;0.43;;;;;;;;;;5036064;28;20255;-68
2023/12/21 07:53:50;;;;;;;0.20;0.20;;;;;;;;;;5036051;28;20261;-68
2023/12/21 07:56:15;;;;;;;1.20;0.45;;;;;;;;;;5035948;28;20021;-69
2023/12/21 07:58:40;;;;;;;0.30;0.30;;;;;;;;;;5036015;28;20070;-68
2023/12/21 08:01:06;;;;;;;0.20;0.20;;;;;;;;;;5035799;28;20035;-68
2023/12/21 08:03:31;;;;;;;0.30;0.30;;;;;;;;;;5036106;28;20374;-68
2023/12/21 08:05:56;;;;;;;0.97;0.20;;;;;;;;;;5035811;28;20025;-68
2023/12/21 08:08:21;;;;;;;0.30;0.30;;;;;;;;;;5035779;28;20330;-68
2023/12/21 08:10:47;;;;;;;0.50;0.50;;;;;;;;;;5035655;28;20274;-68
2023/12/21 08:13:13;;;;;;;0.30;0.30;;;;;;;;;;5035848;28;20251;-68
2023/12/21 08:15:38;;;;;;;2.20;0.60;;;;;;;;;;5035505;28;20053;-68
2023/12/21 08:18:04;;;;;;;1.30;0.40;;;;;;;;;;5035606;28;20091;-68
2023/12/21 08:20:30;;;;;;;0.57;0.50;;;;;;;;;;5035746;28;20040;-69
2023/12/21 08:22:55;;;;;;;0.55;0.40;;;;;;;;;;5035478;28;20017;-68
2023/12/21 08:25:20;;;;;;;0.60;0.40;;;;;;;;;;5035702;28;20037;-68
2023/12/21 08:27:45;;;;;;;0.43;0.30;;;;;;;;;;5035458;28;20380;-68
2023/12/21 08:30:11;;;;;;;0.50;0.50;;;;;;;;;;5035392;28;20029;-68
2023/12/21 08:32:36;;;;;;;0.45;0.45;;;;;;;;;;5035240;28;20262;-68
2023/12/21 08:35:01;;;;;;;0.50;0.47;;;;;;;;;;5035398;28;20029;-68
2023/12/21 08:37:27;;;;;;;0.45;0.45;;;;;;;;;;5035273;28;20251;-68
2023/12/21 08:39:52;;;;;;;0.87;0.77;;;;;;;;;;5035087;28;20021;-68
2023/12/21 08:42:17;;;;;;;0.53;0.53;;;;;;;;;;5035128;28;20295;-68
2023/12/21 08:44:43;;;;;;;0.50;0.40;;;;;;;;;;5035083;28;20270;-68
2023/12/21 08:47:08;;;;;;;0.50;0.50;;;;;;;;;;5035295;28;20235;-68
2023/12/21 08:49:33;;;;;;;0.30;0.30;;;;;;;;;;5035006;28;20041;-68
2023/12/21 08:51:58;;;;;;;0.50;0.50;;;;;;;;;;5035207;28;20010;-68
2023/12/21 08:54:24;;;;;;;0.47;0.40;;;;;;;;;;5034893;28;20440;-68
2023/12/21 08:56:52;;;;;;;1.93;0.70;;;;;;;;;;5034550;28;20013;-68
2023/12/21 08:59:17;;;;;;;0.20;0.20;;;;;;;;;;5034770;28;20266;-68
2023/12/21 09:01:43;;;;;;;0.57;0.57;;;;;;;;;;5034711;28;20025;-68
2023/12/21 09:04:08;;;;;;;0.60;0.60;;;;;;;;;;5034786;28;20389;-68
2023/12/21 09:06:33;;;;;;;1.03;0.87;;;;;;;;;;5034921;28;20100;-68
2023/12/21 09:08:58;;;;;;;0.75;0.60;;;;;;;;;;5034890;28;20271;-68
2023/12/21 09:11:25;;;;;;;1.10;0.70;;;;;;;;;;5034526;28;20484;-68
2023/12/21 09:13:50;;;;;;;0.98;0.80;;;;;;;;;;5034672;28;20112;-68
2023/12/21 09:16:17;;;;;;;0.93;0.82;;;;;;;;;;5034267;28;20487;-68
2023/12/21 09:18:45;;;;;;;1.08;0.82;;;;;;;;;;5034667;28;20476;-68
2023/12/21 09:21:11;;;;;;;1.88;0.60;;;;;;;;;;5034369;28;20024;-68
2023/12/21 09:23:36;;;;;;;0.82;0.80;;;;;;;;;;5034301;28;20021;-68
2023/12/21 09:26:01;;;;;;;0.85;0.60;;;;;;;;;;5034303;28;20025;-69
2023/12/21 09:28:27;;;;;;;0.73;0.50;;;;;;;;;;5034229;28;20021;-68
2023/12/21 09:30:52;;;;;;;0.60;0.60;;;;;;;;;;5034119;28;20718;-68
2023/12/21 09:33:18;;;;;;;0.60;0.60;;;;;;;;;;5034110;28;20021;-68
2023/12/21 09:35:44;;;;;;;0.60;0.60;;;;;;;;;;5034360;28;20436;-68
2023/12/21 09:38:09;;;;;;;0.60;0.60;;;;;;;;;;5034137;28;20013;-68
2023/12/21 09:40:34;;;;;;;0.32;0.32;;;;;;;;;;5033913;28;20758;-69
2023/12/21 09:43:02;;;;;;;0.47;0.47;;;;;;;;;;5034246;28;20028;-68
2023/12/21 09:45:29;;;;;;;0.60;0.60;;;;;;;;;;5034072;28;20033;-65
2023/12/21 09:47:54;;;;;;;0.60;0.52;;;;;;;;;;5034119;28;20018;-65
2023/12/21 09:50:20;;;;;;;0.63;0.50;;;;;;;;;;5033892;28;20040;-65
2023/12/21 09:52:46;;;;;;;1.00;0.70;;;;;;;;;;5033780;28;20027;-65
2023/12/21 09:55:12;;;;;;;0.65;0.60;;;;;;;;;;5033812;28;20029;-65
2023/12/21 09:57:38;;;;;;;0.73;0.52;;;;;;;;;;5033671;28;20030;-65
2023/12/21 10:00:04;;;;;;;0.65;0.52;;;;;;;;;;5033603;28;20135;-65
2023/12/21 10:02:31;;;;;;;0.70;0.52;;;;;;;;;;5033944;28;20020;-65
2023/12/21 10:04:57;;;;;;;1.13;0.80;;;;;;;;;;5033672;28;20021;-65
2023/12/21 10:07:23;;;;;;;0.70;0.60;;;;;;;;;;5033604;28;20021;-65
2023/12/21 10:09:48;;;;;;;0.65;0.40;;;;;;;;;;5033194;28;20025;-65
2023/12/21 10:12:13;;;;;;;0.60;0.50;;;;;;;;;;5033641;28;20021;-65
2023/12/21 10:14:38;;;;;;;0.43;0.43;;;;;;;;;;5033299;28;20286;-65
2023/12/21 10:17:09;;;;;;;0.40;0.40;;;;;;;;;;5033496;28;20041;-65
2023/12/21 10:19:34;;;;;;;0.40;0.40;;;;;;;;;;5033612;28;20250;-66
2023/12/21 10:22:00;;;;;;;0.73;0.60;;;;;;;;;;5033416;28;20419;-65
2023/12/21 10:24:25;;;;;;;0.50;0.50;;;;;;;;;;5033640;28;20782;-66
2023/12/21 10:26:52;;;;;;;0.65;0.60;;;;;;;;;;5033622;28;20512;-65
2023/12/21 10:29:17;;;;;;;0.50;0.50;;;;;;;;;;5033542;28;20381;-65
2023/12/21 10:31:46;;;;;;;2.45;0.57;;;;;;;;;;5033359;28;20029;-65
2023/12/21 10:34:12;;;;;;;0.60;0.43;;;;;;;;;;5033277;28;20048;-65
2023/12/21 10:36:42;;;;;;;0.68;0.57;;;;;;;;;;5033531;28;20462;-65
2023/12/21 10:39:08;;;;;;;0.73;0.73;;;;;;;;;;5033243;28;20028;-65
2023/12/21 10:41:33;;;;;;;0.63;0.60;;;;;;;;;;5033100;28;20429;-65
2023/12/21 10:43:59;;;;;;;0.40;0.40;;;;;;;;;;5033101;28;20045;-65
2023/12/21 10:46:29;;;;;;;0.60;0.60;;;;;;;;;;5033201;28;20101;-65
2023/12/21 10:48:55;;;;;;;0.60;0.60;;;;;;;;;;5033377;28;20044;-65
2023/12/21 10:51:20;;;;;;;0.50;0.50;;;;;;;;;;5033140;28;20525;-65
2023/12/21 10:53:46;;;;;;;0.82;0.70;;;;;;;;;;5033135;28;20466;-65
2023/12/21 10:56:11;;;;;;;1.05;0.75;;;;;;;;;;5033244;28;20424;-68
2023/12/21 10:58:37;;;;;;;0.93;0.82;;;;;;;;;;5033039;28;20108;-68
2023/12/21 11:01:03;;;;;;;0.50;0.47;;;;;;;;;;5032987;28;20444;-68
2023/12/21 11:03:29;;;;;;;1.33;0.80;;;;;;;;;;5033255;28;20021;-68
2023/12/21 11:05:55;;;;;;;1.17;0.73;;;;;;;;;;5032958;28;20436;-68
2023/12/21 11:08:22;;;;;;;1.00;0.90;;;;;;;;;;5032842;28;20029;-68
2023/12/21 11:10:47;;;;;;;0.82;0.63;;;;;;;;;;5032957;28;20121;-68
2023/12/21 11:13:12;;;;;;;2.10;0.80;;;;;;;;;;5032901;28;20049;-69
2023/12/21 11:15:38;;;;;;;0.50;0.50;;;;;;;;;;5032810;28;20056;-68
2023/12/21 11:18:08;;;;;;;0.43;0.43;;;;;;;;;;5032875;28;20246;-68
2023/12/21 11:20:35;;;;;;;0.57;0.50;;;;;;;;;;5034909;28;20017;-68
2023/12/21 11:23:07;;;;;;;0.40;0.40;;;;;;;;;;5036626;28;20017;-68
2023/12/21 11:25:33;;;;;;;0.40;0.40;;;;;;;;;;5036622;28;20014;-68
2023/12/21 11:28:02;;;;;;;0.60;0.60;;;;;;;;;;5036568;28;20045;-68
2023/12/21 11:30:28;;;;;;;0.50;0.50;;;;;;;;;;5036745;28;20036;-68
2023/12/21 11:33:02;;;;;;;0.47;0.47;;;;;;;;;;5036406;28;20025;-68
2023/12/21 11:35:31;;;;;;;0.75;0.60;;;;;;;;;;5036315;28;20021;-68
2023/12/21 11:37:57;;;;;;;0.80;0.57;;;;;;;;;;5036321;28;20048;-68
2023/12/21 11:40:22;;;;;;;0.57;0.57;;;;;;;;;;5036479;28;20021;-68
2023/12/21 11:42:48;;;;;;;0.50;0.50;;;;;;;;;;5036208;28;20461;-68
2023/12/21 11:45:24;;;;;;;0.70;0.45;;;;;;;;;;5036194;28;20025;-68
2023/12/21 11:47:50;;;;;;;0.98;0.52;;;;;;;;;;5036196;28;20071;-68
2023/12/21 11:50:18;;;;;;;0.95;0.45;;;;;;;;;;5036330;28;20080;-68
2023/12/21 11:52:43;;;;;;;0.85;0.65;;;;;;;;;;5036160;28;20024;-68
2023/12/21 11:55:08;;;;;;;0.50;0.50;;;;;;;;;;5036007;28;20025;-68
2023/12/21 11:57:39;;;;;;;0.70;0.40;;;;;;;;;;5035985;28;20251;-68
2023/12/21 12:00:08;;;;;;;0.45;0.45;;;;;;;;;;5036144;28;20022;-68
2023/12/21 12:02:36;;;;;;;0.50;0.38;;;;;;;;;;5035932;28;20468;-68
2023/12/21 12:05:05;;;;;;;0.80;0.65;;;;;;;;;;5036187;28;20028;-65
2023/12/21 12:07:32;;;;;;;0.50;0.50;;;;;;;;;;5035838;28;20037;-65
2023/12/21 12:09:57;;;;;;;1.80;0.60;;;;;;;;;;5036036;28;20224;-65
2023/12/21 12:12:23;;;;;;;0.98;0.68;;;;;;;;;;5035758;28;20575;-65
2023/12/21 12:14:48;;;;;;;0.67;0.57;;;;;;;;;;5035496;28;20053;-65
2023/12/21 12:17:13;;;;;;;0.60;0.60;;;;;;;;;;5035707;28;20341;-65
2023/12/21 12:19:38;;;;;;;0.47;0.47;;;;;;;;;;5035457;28;20333;-65
2023/12/21 12:22:04;;;;;;;0.50;0.50;;;;;;;;;;5035510;28;20024;-65
2023/12/21 12:24:29;;;;;;;2.60;0.65;;;;;;;;;;5035523;28;20025;-65
2023/12/21 12:26:54;;;;;;;0.50;0.50;;;;;;;;;;5035477;28;20422;-65
2023/12/21 12:29:20;;;;;;;0.60;0.60;;;;;;;;;;5035410;28;20022;-65
2023/12/21 12:31:47;;;;;;;0.70;0.60;;;;;;;;;;5034826;28;20018;-65
2023/12/21 12:34:12;;;;;;;0.95;0.52;;;;;;;;;;5035362;28;20029;-65
2023/12/21 12:36:37;;;;;;;0.52;0.50;;;;;;;;;;5035539;28;20022;-65
2023/12/21 12:39:03;;;;;;;1.60;0.70;;;;;;;;;;5035230;28;20017;-65
2023/12/21 12:41:28;;;;;;;0.77;0.70;;;;;;;;;;5035114;28;20604;-65
2023/12/21 12:43:55;;;;;;;0.88;0.52;;;;;;;;;;5035131;28;20254;-65
2023/12/21 12:46:24;;;;;;;0.60;0.60;;;;;;;;;;5035050;28;20021;-65
2023/12/21 12:48:50;;;;;;;0.60;0.60;;;;;;;;;;5035129;28;20028;-65
2023/12/21 12:51:15;;;;;;;0.55;0.55;;;;;;;;;;5034993;28;20025;-65
2023/12/21 12:53:43;;;;;;;2.90;0.50;;;;;;;;;;5035041;28;20025;-65
2023/12/21 12:56:08;;;;;;;0.50;0.50;;;;;;;;;;5034871;28;20274;-65
2023/12/21 12:58:35;;;;;;;0.95;0.50;;;;;;;;;;5034836;28;20499;-65
2023/12/21 13:01:01;;;;;;;0.40;0.40;;;;;;;;;;5034757;28;20109;-65
2023/12/21 13:03:27;;;;;;;0.73;0.40;;;;;;;;;;5034996;28;20076;-65
2023/12/21 13:05:52;;;;;;;0.50;0.50;;;;;;;;;;5034742;28;20021;-65
2023/12/21 13:08:17;;;;;;;0.40;0.40;;;;;;;;;;5034708;28;20607;-65
2023/12/21 13:10:42;;;;;;;0.47;0.47;;;;;;;;;;5034663;28;20028;-65
2023/12/21 13:13:07;;;;;;;0.40;0.40;;;;;;;;;;5034491;28;20242;-65
2023/12/21 13:15:33;;;;;;;0.30;0.30;;;;;;;;;;5033254;28;20324;-65
2023/12/21 13:17:58;;;;;;;0.30;0.30;;;;;;;;;;5034443;28;20298;-65
2023/12/21 13:20:23;;;;;;;0.83;0.57;;;;;;;;;;5034378;28;20017;-65
2023/12/21 13:22:49;;;;;;;0.40;0.40;;;;;;;;;;5034632;28;20321;-65
2023/12/21 13:25:16;;;;;;;0.40;0.40;;;;;;;;;;5034590;28;20271;-65
2023/12/21 13:27:41;;;;;;;0.40;0.40;;;;;;;;;;5034585;28;20336;-65
2023/12/21 13:30:06;;;;;;;0.40;0.40;;;;;;;;;;5034522;28;20084;-65
2023/12/21 13:32:32;;;;;;;0.30;0.30;;;;;;;;;;5034425;28;20032;-65
2023/12/21 13:34:57;;;;;;;0.22;0.22;;;;;;;;;;5034139;28;20024;-65
2023/12/21 13:37:23;;;;;;;0.32;0.32;;;;;;;;;;5034141;28;20428;-65
2023/12/21 13:39:49;;;;;;;0.27;0.23;;;;;;;;;;5034031;28;20031;-65
2023/12/21 13:42:15;;;;;;;0.32;0.32;;;;;;;;;;5034671;28;20017;-65
2023/12/21 13:44:40;;;;;;;1.20;0.43;;;;;;;;;;5033064;28;20021;-65
2023/12/21 13:47:05;;;;;;;0.20;0.20;;;;;;;;;;5033913;28;20104;-65
2023/12/21 13:49:31;;;;;;;0.40;0.40;;;;;;;;;;5033917;28;20014;-65
2023/12/21 13:51:57;;;;;;;0.75;0.38;;;;;;;;;;5034131;28;20274;-65
2023/12/21 13:54:22;;;;;;;0.28;0.28;;;;;;;;;;5033834;28;20494;-65
2023/12/21 13:56:48;;;;;;;0.30;0.30;;;;;;;;;;5033867;28;20385;-65
2023/12/21 13:59:13;;;;;;;0.25;0.25;;;;;;;;;;5033714;28;20258;-65
2023/12/21 14:01:38;;;;;;;0.33;0.30;;;;;;;;;;5033856;28;20104;-65
2023/12/21 14:04:03;;;;;;;0.73;0.30;;;;;;;;;;5033676;28;20453;-65
2023/12/21 14:06:29;;;;;;;0.30;0.30;;;;;;;;;;5033609;28;20092;-65
2023/12/21 14:08:54;;;;;;;0.60;0.40;;;;;;;;;;5033646;28;20254;-65
2023/12/21 14:11:19;;;;;;;0.32;0.30;;;;;;;;;;5033847;28;20021;-65
2023/12/21 14:13:45;;;;;;;0.20;0.20;;;;;;;;;;5033368;28;20104;-65
2023/12/21 14:16:10;;;;;;;0.27;0.27;;;;;;;;;;5033337;28;20282;-65
2023/12/21 14:18:35;;;;;;;0.10;0.10;;;;;;;;;;5033743;28;20045;-65
2023/12/21 14:21:01;;;;;;;0.30;0.30;;;;;;;;;;5033381;28;20017;-65
2023/12/21 14:23:26;;;;;;;0.22;0.22;;;;;;;;;;5033449;28;20100;-65
2023/12/21 14:25:51;;;;;;;0.25;0.25;;;;;;;;;;5033472;28;20017;-68
2023/12/21 14:28:17;;;;;;;0.20;0.20;;;;;;;;;;5033391;28;20427;-68
2023/12/21 14:30:42;;;;;;;0.40;0.20;;;;;;;;;;5033324;28;20021;-68
2023/12/21 14:33:07;;;;;;;0.20;0.20;;;;;;;;;;5033301;28;20254;-68